Hauptseite
METAR-TAF:

METAR-TAF

Flughäfen :

Flughafen Damaskus

Damaskus, Syrien

Breite: 33-25N, Länge: 036-31E, Höhe: 608 m

Beobachtung

Neuester Wetterbericht von vor 11 Minuten, um 04:00 UTC
Wind 4 kt aus Süd/Südwest
Temperatur 22°C
Luftfeuchtigkeit 33%
Luftdruck 1012 hPa
Sichtweite 10 km oder mehr
keine Wolken unter 1500 m und keine Kumulonimbus oder Gewitterwolken

METAR: OSDI 230400Z 20004KT CAVOK 22/05 Q1012

Zeit: 07:11 (04:11 UTC)

Prognose

Gültige Prognose vom 23 um 00 UTC bis 24 um 06 UTC
Wind 10 kt aus Südwest
Sichtweite 10 km oder mehr
keine Wolken unter 1500 m und keine Kumulonimbus oder Gewitterwolken
Zeitweise
vom 23 um 09 UTC bis 23 um 20 UTC
Wind 15 kt aus West/Südwest, Böen bis zu 25 kt
Sichtweite 10 km oder mehr
keine Wolken unter 1500 m und keine Kumulonimbus oder Gewitterwolken

TAF: OSDI 2300/2406 22010KT CAVOK TEMPO 2309/2320 25015G25KT CAVOK

Wetterbeobachtungen und Prognosen von mehr als 4000 Flughäfen (METAR und TAF Bericht).

Die verfügbaren Stationen werden durch gelbe und rote Markierungen auf der Karte dargestellt.

Führen Sie die Maus auf sie, um den Namen der Station zu sehen.

Darauf klicken, um die Beobachtung von Wetterbeobachtungen und Prognosen zu sehen.

Um die Karte zu ändern : klicken Sie auf den grünen Tasten mit einem schwarzen Kreuz Zum Vergrößern, auf den grünen Button mit einem Gedankenstrich zu verkleinern, oder auf die grünen Pfeile für benachbarte Karten.


METAR-TAF: